Annette, Alaska
Current Conditions -  °F | °C
As of 8:53 PM on Monday 20 Oct 2014 (Local Time) from PANT Reporting Station
Overcast Overcast  
Wind Chill:   Ceiling: 3000
Heat Index:   Visibility: 10mi
Dew Point:   Wind: 9mph
Humidity: 93%   Direction: 120°ESE
Pressure: 29.45"   Gusts: NA
Location:  55.05°N, 131.6°W
Report Text: PANT 210553Z AUTO 12008KT 10SM FEW009 BKN030 OVC038 09/08 A2945 RMK AO2 SLP974 T00940083 10122 20094 56001 TSNO
Loading
Personal Weather Stations






























Interactive Weather Map
Tropical Storm Tracking
New forecast layout! Learn more

10-Day Weather Forecast

Advertisements
Track Severe Weather on mobile